Time;durP1;ratioP1;P1;durP2;ratioP2;P2;SDS_P1;SDS_P2;PMS_P1;PMS_P2;Temp;Humidity;BMP_temperature;BMP_pressure;BME280_temperature;BME280_humidity;BME280_pressure;Samples;Min_cycle;Max_cycle;Signal;HPM_P1;HPM_P2
2020/12/28 00:01:30;;;;;;;90.80;41.40;;;;;;;-0.99;82.17;96233.70;1816367;78;21059;-72
2020/12/28 00:03:55;;;;;;;88.37;40.60;;;;;;;-1.01;81.66;96220.39;1816388;78;20963;-73
2020/12/28 00:06:21;;;;;;;90.67;41.28;;;;;;;-1.04;82.32;96220.34;1816460;78;20853;-73
2020/12/28 00:08:47;;;;;;;88.60;43.68;;;;;;;-1.03;81.83;96228.59;1816345;79;21095;-72
2020/12/28 00:11:18;;;;;;;89.90;42.95;;;;;;;-1.02;81.75;96230.75;1816374;78;21105;-72
2020/12/28 00:13:45;;;;;;;92.88;44.05;;;;;;;-1.06;81.76;96228.30;1816401;78;21102;-73
2020/12/28 00:16:14;;;;;;;87.30;39.27;;;;;;;-1.09;81.75;96228.81;1782237;79;21063;-73
2020/12/28 00:18:41;;;;;;;73.67;33.48;;;;;;;-1.13;82.06;96225.83;1815318;79;21079;-73
2020/12/28 00:21:07;;;;;;;38.38;18.35;;;;;;;-1.17;82.87;96224.73;1816325;79;21104;-74
2020/12/28 00:23:33;;;;;;;38.45;16.10;;;;;;;-1.25;83.11;96215.34;1816255;78;21091;-73
2020/12/28 00:25:58;;;;;;;37.23;16.95;;;;;;;-1.30;83.28;96207.82;1816386;78;20908;-73
2020/12/28 00:28:24;;;;;;;31.25;14.60;;;;;;;-1.28;83.11;96204.38;1816348;78;20858;-73
2020/12/28 00:30:50;;;;;;;32.45;14.15;;;;;;;-1.26;82.60;96203.10;1816392;79;21884;-73
2020/12/28 00:33:16;;;;;;;40.67;19.05;;;;;;;-1.26;82.13;96203.10;1816371;78;21259;-74
2020/12/28 00:35:43;;;;;;;43.02;19.80;;;;;;;-1.27;82.12;96204.16;1816347;79;21106;-73
2020/12/28 00:38:09;;;;;;;43.73;18.73;;;;;;;-1.28;81.78;96209.70;1816330;79;21452;-73
2020/12/28 00:40:35;;;;;;;47.25;21.82;;;;;;;-1.33;82.23;96225.59;1782386;79;20905;-73
2020/12/28 00:43:00;;;;;;;63.80;24.72;;;;;;;-1.34;82.43;96215.50;1816322;79;21550;-73
2020/12/28 00:45:26;;;;;;;81.78;33.55;;;;;;;-1.44;83.54;96192.80;1816394;79;21174;-73
2020/12/28 00:47:52;;;;;;;48.05;22.58;;;;;;;-1.51;84.00;96191.65;1816296;78;20924;-73
2020/12/28 00:50:18;;;;;;;46.10;21.65;;;;;;;-1.51;83.34;96176.23;1816385;78;21014;-73
2020/12/28 00:52:43;;;;;;;33.60;15.43;;;;;;;-1.52;82.96;96168.80;1816366;79;21066;-73
2020/12/28 00:55:09;;;;;;;69.05;32.93;;;;;;;-1.56;83.77;96175.63;1816406;78;20920;-73
2020/12/28 00:57:35;;;;;;;67.50;31.73;;;;;;;-1.53;83.15;96169.05;1816305;79;21270;-74
2020/12/28 01:00:01;;;;;;;74.00;35.03;;;;;;;-1.52;83.32;96161.35;1816324;78;20908;-73
2020/12/28 01:02:27;;;;;;;57.13;28.02;;;;;;;-1.47;83.27;96143.59;1816529;78;21573;-73
2020/12/28 01:04:53;;;;;;;64.32;30.17;;;;;;;-1.50;83.80;96137.98;1816515;78;20904;-74
2020/12/28 01:07:18;;;;;;;67.75;33.83;;;;;;;-1.56;84.30;96134.45;1816532;78;21314;-74
2020/12/28 01:09:44;;;;;;;67.97;34.67;;;;;;;-1.55;83.16;96144.03;1782625;79;21171;-73
2020/12/28 01:12:10;;;;;;;66.97;32.75;;;;;;;-1.62;84.63;96147.92;1816492;79;20869;-73
2020/12/28 01:14:36;;;;;;;75.05;35.98;;;;;;;-1.57;83.31;96138.70;1816543;78;20992;-73
2020/12/28 01:17:02;;;;;;;58.87;30.92;;;;;;;-1.59;83.51;96132.84;1816538;78;20979;-73
2020/12/28 01:19:27;;;;;;;67.75;35.88;;;;;;;-1.55;82.78;96152.53;1816526;78;21060;-73
2020/12/28 01:21:58;;;;;;;70.17;34.55;;;;;;;-1.57;84.95;96129.41;1816573;78;21249;-73
2020/12/28 01:24:23;;;;;;;72.35;33.30;;;;;;;-1.58;84.38;96112.66;1816435;78;21551;-73
2020/12/28 01:26:49;;;;;;;65.10;32.85;;;;;;;-1.53;83.03;96126.54;1816526;78;20963;-74
2020/12/28 01:29:15;;;;;;;73.42;36.60;;;;;;;-1.56;83.33;96113.20;1816490;78;20850;-73
2020/12/28 01:31:40;;;;;;;58.10;32.75;;;;;;;-1.53;83.39;96116.72;1816584;78;20932;-73
2020/12/28 01:34:06;;;;;;;61.45;31.55;;;;;;;-1.48;83.27;96122.06;1816513;78;21074;-74
2020/12/28 01:36:32;;;;;;;47.03;24.30;;;;;;;-1.46;86.02;96124.47;1816496;78;20912;-74
2020/12/28 01:38:58;;;;;;;28.92;17.90;;;;;;;-1.37;85.01;96124.83;1816485;79;20821;-73
2020/12/28 01:41:24;;;;;;;35.90;18.70;;;;;;;-1.31;85.42;96095.94;1816508;78;21515;-74
2020/12/28 01:43:50;;;;;;;23.80;15.20;;;;;;;-1.25;85.14;96093.61;1816496;78;20865;-74
2020/12/28 01:46:16;;;;;;;26.90;14.23;;;;;;;-1.18;85.95;96089.70;1816556;79;21524;-73
2020/12/28 01:48:42;;;;;;;26.10;14.15;;;;;;;-1.14;84.72;96084.14;1816419;79;21114;-73
2020/12/28 01:51:08;;;;;;;23.80;12.15;;;;;;;-1.08;84.24;96082.34;1816496;78;20865;-73
2020/12/28 01:53:34;;;;;;;16.52;8.85;;;;;;;-0.94;84.29;96061.44;1816499;79;20975;-73
2020/12/28 01:56:05;;;;;;;21.97;9.95;;;;;;;-0.84;84.11;96060.20;1816545;78;21071;-73
2020/12/28 01:58:30;;;;;;;20.80;10.88;;;;;;;-0.52;84.36;96052.69;1816460;79;21211;-73
2020/12/28 02:00:56;;;;;;;20.62;10.53;;;;;;;-0.23;84.58;96043.28;1816385;78;20932;-73
2020/12/28 02:03:22;;;;;;;29.52;14.38;;;;;;;-0.05;84.41;96045.50;1816477;79;21150;-73
2020/12/28 02:05:49;;;;;;;20.72;11.85;;;;;;;0.12;84.19;96039.97;1816527;79;21015;-73
2020/12/28 02:08:15;;;;;;;22.87;12.25;;;;;;;0.25;84.33;96032.00;1816515;79;21119;-74
2020/12/28 02:10:40;;;;;;;15.38;8.80;;;;;;;0.37;83.96;96031.79;1816488;78;21161;-74
2020/12/28 02:13:06;;;;;;;19.15;8.33;;;;;;;0.46;83.63;96044.34;1816426;79;20881;-73
2020/12/28 02:15:32;;;;;;;21.40;8.33;;;;;;;0.50;83.37;96042.73;1816512;78;20991;-73
2020/12/28 02:17:58;;;;;;;17.45;7.47;;;;;;;0.54;83.19;96035.03;1816452;79;20913;-73
2020/12/28 02:20:24;;;;;;;16.60;7.97;;;;;;;0.50;84.10;96024.08;1816485;79;20975;-73
2020/12/28 02:22:49;;;;;;;19.07;9.93;;;;;;;0.56;83.52;96031.56;1816376;79;21190;-73
2020/12/28 02:25:15;;;;;;;24.67;16.27;;;;;;;0.56;83.21;96024.89;1816422;79;21011;-74
2020/12/28 02:27:41;;;;;;;21.07;12.43;;;;;;;0.55;82.86;96030.76;1816459;78;20943;-73
2020/12/28 02:30:07;;;;;;;23.67;10.72;;;;;;;0.48;82.60;96027.55;1816438;78;20865;-73
2020/12/28 02:32:32;;;;;;;16.52;10.13;;;;;;;0.46;82.58;96028.34;1816602;79;20916;-73
2020/12/28 02:34:58;;;;;;;18.15;9.43;;;;;;;0.48;82.47;96016.08;1816413;78;21125;-74
2020/12/28 02:37:24;;;;;;;19.17;10.65;;;;;;;0.47;82.60;96005.95;1816445;78;21090;-74
2020/12/28 02:39:50;;;;;;;17.98;10.15;;;;;;;0.52;82.75;95991.86;1816483;78;20900;-73
2020/12/28 02:42:16;;;;;;;17.85;9.95;;;;;;;0.49;82.88;95997.69;1816486;79;21099;-74
2020/12/28 02:44:41;;;;;;;19.35;10.50;;;;;;;0.39;82.77;95982.49;1816458;78;21042;-73
2020/12/28 02:47:07;;;;;;;23.47;10.15;;;;;;;0.33;82.51;95986.73;1816476;78;21181;-74
2020/12/28 02:49:33;;;;;;;17.62;8.90;;;;;;;0.22;82.83;95981.93;1816388;78;20999;-74
2020/12/28 02:51:59;;;;;;;19.17;9.48;;;;;;;0.20;83.65;95984.06;1816519;79;20896;-73
2020/12/28 02:54:24;;;;;;;18.90;9.20;;;;;;;0.18;83.23;95983.00;1816446;79;21533;-73
2020/12/28 02:56:50;;;;;;;13.98;9.08;;;;;;;0.18;83.31;95979.53;1816465;79;20912;-73
2020/12/28 02:59:16;;;;;;;23.83;11.57;;;;;;;0.22;83.04;95991.25;1816449;78;21430;-73
2020/12/28 03:01:42;;;;;;;24.00;11.88;;;;;;;0.18;83.13;95991.52;1816461;78;20960;-73
2020/12/28 03:04:07;;;;;;;20.80;11.03;;;;;;;0.15;82.86;95990.16;1816423;79;20893;-73
2020/12/28 03:06:33;;;;;;;21.52;10.90;;;;;;;0.06;83.19;95989.61;1816501;78;21078;-74
2020/12/28 03:08:59;;;;;;;20.65;10.28;;;;;;;0.04;82.92;95989.88;1816398;79;20970;-74
2020/12/28 03:11:25;;;;;;;19.82;10.32;;;;;;;-0.03;82.67;95988.78;1816470;78;21176;-74
2020/12/28 03:13:50;;;;;;;19.85;9.80;;;;;;;-0.16;84.31;95988.48;1816365;78;20900;-73
2020/12/28 03:16:16;;;;;;;20.12;9.33;;;;;;;-0.18;83.56;95975.41;1816415;79;20963;-73
2020/12/28 03:18:42;;;;;;;17.10;8.50;;;;;;;-0.19;83.46;95979.13;1816419;79;21074;-73
2020/12/28 03:21:08;;;;;;;19.65;9.35;;;;;;;-0.24;84.00;95966.36;1816414;78;20916;-73
2020/12/28 03:23:33;;;;;;;15.63;9.03;;;;;;;-0.26;83.18;95947.95;1816350;79;21183;-73
2020/12/28 03:25:59;;;;;;;11.60;6.20;;;;;;;-0.30;82.97;95938.91;1816400;78;20889;-73
2020/12/28 03:28:25;;;;;;;13.10;7.65;;;;;;;-0.31;82.95;95932.79;1816382;78;21557;-74
2020/12/28 03:30:51;;;;;;;11.75;6.00;;;;;;;-0.28;84.41;95931.45;1816452;79;20999;-73
2020/12/28 03:33:16;;;;;;;12.13;7.20;;;;;;;-0.21;83.82;95929.89;1816403;79;21007;-74
2020/12/28 03:35:43;;;;;;;18.32;8.08;;;;;;;-0.18;83.36;95929.36;1816459;79;21245;-73
2020/12/28 03:38:09;;;;;;;18.95;8.80;;;;;;;-0.21;83.61;95929.89;1816277;78;21178;-73
2020/12/28 03:40:35;;;;;;;16.05;8.58;;;;;;;-0.31;85.38;95922.67;1816397;78;21534;-74
2020/12/28 03:43:00;;;;;;;14.73;8.08;;;;;;;-0.27;85.21;95929.59;1816432;78;20991;-74
2020/12/28 03:45:26;;;;;;;15.88;9.83;;;;;;;-0.22;84.06;95918.97;1816451;79;20985;-73
2020/12/28 03:47:52;;;;;;;15.63;9.90;;;;;;;-0.21;83.85;95912.05;1816460;79;21360;-73
2020/12/28 03:50:18;;;;;;;18.42;7.42;;;;;;;-0.19;83.69;95921.10;1816343;78;20877;-73
2020/12/28 03:52:44;;;;;;;23.15;13.75;;;;;;;-0.34;85.28;95903.25;1816449;79;21098;-73
2020/12/28 03:55:10;;;;;;;29.75;22.27;;;;;;;-0.37;84.93;95902.42;1816386;79;20842;-74
2020/12/28 03:57:35;;;;;;;19.02;9.08;;;;;;;-0.34;83.64;95916.02;1816489;78;21670;-73
2020/12/28 04:00:01;;;;;;;12.68;6.72;;;;;;;-0.41;85.26;95886.72;1816341;79;21189;-74
2020/12/28 04:02:27;;;;;;;13.72;7.75;;;;;;;-0.34;84.43;95909.37;1816333;78;20869;-73
2020/12/28 04:04:53;;;;;;;14.07;7.90;;;;;;;-0.27;84.78;95905.64;1816404;78;21101;-73
2020/12/28 04:07:19;;;;;;;14.50;5.92;;;;;;;-0.26;84.28;95902.71;1816415;79;20991;-73
2020/12/28 04:09:44;;;;;;;14.23;6.70;;;;;;;-0.24;86.59;95900.61;1816454;79;21019;-73
2020/12/28 04:12:10;;;;;;;13.58;7.10;;;;;;;-0.14;85.23;95886.52;1816404;78;21181;-73
2020/12/28 04:14:36;;;;;;;25.30;18.90;;;;;;;-0.11;84.37;95880.13;1816399;78;21019;-73
2020/12/28 04:17:02;;;;;;;30.37;19.48;;;;;;;-0.20;83.95;95879.05;1816413;78;21008;-73
2020/12/28 04:19:28;;;;;;;19.57;11.60;;;;;;;-0.21;84.29;95877.98;1816381;79;20932;-73
2020/12/28 04:21:53;;;;;;;19.85;11.75;;;;;;;-0.20;84.16;95872.39;1816407;79;21014;-73
2020/12/28 04:24:19;;;;;;;23.00;11.75;;;;;;;-0.30;84.92;95871.84;1782426;79;21355;-73
2020/12/28 04:26:45;;;;;;;22.48;13.03;;;;;;;-0.35;84.75;95871.02;1816354;78;21011;-73
2020/12/28 04:29:11;;;;;;;19.92;12.65;;;;;;;-0.33;84.70;95858.27;1782292;79;20908;-73
2020/12/28 04:31:38;;;;;;;22.10;11.50;;;;;;;-0.34;85.11;95860.66;1816411;79;21026;-73
2020/12/28 04:34:04;;;;;;;18.02;10.88;;;;;;;-0.32;84.38;95858.53;1816407;79;21519;-74
2020/12/28 04:36:30;;;;;;;20.40;11.18;;;;;;;-0.34;85.51;95851.35;1816552;79;21184;-73
2020/12/28 04:38:56;;;;;;;16.67;8.28;;;;;;;-0.30;85.37;95848.41;1816428;79;20884;-74
2020/12/28 04:41:21;;;;;;;23.73;11.57;;;;;;;-0.27;86.26;95844.42;1816560;79;21121;-73
2020/12/28 04:43:47;;;;;;;16.42;9.90;;;;;;;-0.24;85.06;95842.58;1816575;78;20901;-73
2020/12/28 04:46:13;;;;;;;14.40;8.73;;;;;;;-0.28;85.88;95832.98;1816627;78;21072;-73
2020/12/28 04:48:38;;;;;;;15.65;7.58;;;;;;;-0.24;85.01;95830.60;1782737;79;21315;-73
2020/12/28 04:51:04;;;;;;;46.18;18.40;;;;;;;-0.23;84.59;95839.65;1816514;79;20999;-73
2020/12/28 04:53:30;;;;;;;20.57;8.03;;;;;;;-0.13;86.08;95818.89;1816552;79;20829;-74
2020/12/28 04:55:57;;;;;;;31.90;18.48;;;;;;;-0.01;85.32;95818.09;1816552;79;20976;-74
2020/12/28 04:58:24;;;;;;;37.17;17.52;;;;;;;0.03;85.11;95819.17;1816592;79;21169;-73
2020/12/28 05:01:00;;;;;;;28.83;12.78;;;;;;;0.05;85.29;95814.38;1816494;78;21448;-73
2020/12/28 05:03:28;;;;;;;25.50;12.63;;;;;;;0.02;84.96;95812.25;1816519;78;21114;-73
2020/12/28 05:05:54;;;;;;;24.80;11.88;;;;;;;0.04;84.66;95806.12;1816644;79;21115;-73
2020/12/28 05:08:21;;;;;;;10.00;4.72;;;;;;;0.18;85.12;95802.41;1816596;79;20869;-73
2020/12/28 05:10:46;;;;;;;3.92;2.87;;;;;;;0.51;84.77;95794.34;1816505;79;21444;-72
2020/12/28 05:13:14;;;;;;;2.87;1.42;;;;;;;0.93;84.47;95779.84;1816565;78;21094;-73
2020/12/28 05:15:50;;;;;;;2.15;1.00;;;;;;;1.43;83.42;95774.80;1816504;78;21031;-73
2020/12/28 05:18:19;;;;;;;38.95;17.20;;;;;;;2.01;82.30;95778.16;1816611;78;21578;-74
2020/12/28 05:20:49;;;;;;;6.62;4.28;;;;;;;2.60;80.29;95771.21;1816613;78;21118;-72
2020/12/28 05:23:15;;;;;;;4.17;3.17;;;;;;;2.80;77.49;95744.23;1816559;79;21159;-73
2020/12/28 05:25:44;;;;;;;9.43;8.08;;;;;;;2.94;77.89;95758.28;1816437;78;21325;-73
2020/12/28 05:28:20;;;;;;;8.25;7.40;;;;;;;3.08;78.15;95761.86;1816149;79;21579;-74
2020/12/28 05:30:46;;;;;;;4.78;2.77;;;;;;;3.15;77.59;95756.14;1816532;79;21551;-73
2020/12/28 05:33:12;;;;;;;7.22;3.92;;;;;;;3.24;77.19;95758.42;1782689;79;20892;-73
2020/12/28 05:35:38;;;;;;;5.95;3.17;;;;;;;3.35;77.18;95749.20;1816442;79;21039;-72
2020/12/28 05:38:04;;;;;;;3.47;2.45;;;;;;;3.38;75.85;95744.05;1816523;78;21427;-73
2020/12/28 05:40:31;;;;;;;3.80;2.37;;;;;;;3.44;76.17;95730.61;1782378;79;21039;-72
2020/12/28 05:42:57;;;;;;;3.50;2.33;;;;;;;3.40;74.73;95715.10;1816434;78;21190;-73
2020/12/28 05:45:23;;;;;;;5.85;3.02;;;;;;;3.39;74.88;95710.05;1816442;79;21082;-73
2020/12/28 05:47:54;;;;;;;2.47;1.77;;;;;;;3.41;75.17;95721.25;1816541;79;20927;-72
2020/12/28 05:50:26;;;;;;;2.35;1.92;;;;;;;3.42;75.02;95721.53;1816439;78;21179;-74
2020/12/28 05:52:55;;;;;;;3.40;1.95;;;;;;;3.37;76.14;95730.42;1815916;79;21571;-73
2020/12/28 05:55:22;;;;;;;;;;;;;;;3.36;76.16;95738.74;1818189;79;21063;-71
2020/12/28 05:57:48;;;;;;;12.90;5.00;;;;;;;3.21;74.61;95738.94;1816471;79;20220;-71
2020/12/28 06:00:14;;;;;;;9.48;4.37;;;;;;;3.04;76.53;95725.50;1816448;79;20881;-72
2020/12/28 06:02:40;;;;;;;11.88;5.45;;;;;;;3.04;76.53;95725.50;1816475;79;21081;-72
2020/12/28 06:05:10;;;;;;;6.58;3.65;;;;;;;2.87;75.97;95708.33;1782545;79;21114;-71
2020/12/28 06:07:35;;;;;;;8.10;4.50;;;;;;;2.76;76.71;95713.81;1816539;79;21111;-73
2020/12/28 06:10:01;;;;;;;7.40;3.60;;;;;;;2.76;75.83;95719.70;1816483;79;21293;-74
2020/12/28 06:12:27;;;;;;;18.75;13.53;;;;;;;2.79;76.68;95723.13;1816542;79;20916;-73
2020/12/28 06:14:53;;;;;;;25.75;16.93;;;;;;;2.78;77.08;95735.71;1816504;78;21189;-73
2020/12/28 06:17:19;;;;;;;17.57;11.15;;;;;;;2.73;77.30;95741.65;1816389;78;21194;-73
2020/12/28 06:19:45;;;;;;;34.23;16.60;;;;;;;2.68;77.06;95749.20;1816434;79;21550;-73
2020/12/28 06:22:22;;;;;;;28.35;15.88;;;;;;;2.47;76.78;95744.59;1816503;78;20865;-74
2020/12/28 06:25:06;;;;;;;27.20;15.18;;;;;;;2.33;76.89;95732.99;1814768;79;21020;-72
2020/12/28 06:27:40;;;;;;;12.20;5.90;;;;;;;2.23;77.12;95729.88;1816583;79;21587;-72
2020/12/28 06:30:19;;;;;;;9.35;3.72;;;;;;;2.26;77.27;95727.17;1816436;78;21127;-73
2020/12/28 06:32:48;;;;;;;6.83;4.60;;;;;;;2.39;77.33;95719.02;1816540;79;21108;-72
2020/12/28 06:35:17;;;;;;;5.55;3.40;;;;;;;2.55;76.80;95709.22;1816563;79;21215;-72
2020/12/28 06:37:50;;;;;;;10.78;5.83;;;;;;;2.75;76.21;95684.14;1783390;79;21112;-73
2020/12/28 06:40:29;;;;;;;24.02;10.75;;;;;;;2.95;76.40;95680.95;1816162;79;21227;-73
2020/12/28 06:43:11;;;;;;;7.35;3.58;;;;;;;3.03;75.44;95673.08;1814522;79;21134;-72
2020/12/28 06:45:38;;;;;;;10.48;5.25;;;;;;;3.21;75.65;95674.70;1816427;79;21056;-72
2020/12/28 06:48:04;;;;;;;7.05;5.22;;;;;;;3.41;75.38;95666.37;1816455;79;21107;-72
2020/12/28 06:50:30;;;;;;;9.20;4.28;;;;;;;3.76;73.27;95666.89;1816420;79;20961;-73
2020/12/28 06:52:56;;;;;;;8.85;5.03;;;;;;;4.10;72.40;95649.99;1816468;79;21102;-73
2020/12/28 06:55:24;;;;;;;5.35;3.33;;;;;;;4.34;72.64;95663.20;1816308;79;21231;-73
2020/12/28 06:57:50;;;;;;;7.87;4.67;;;;;;;4.50;72.01;95665.05;1816501;79;21087;-71
2020/12/28 07:00:21;;;;;;;33.38;17.32;;;;;;;4.49;69.32;95658.90;1816368;78;20892;-72
2020/12/28 07:02:54;;;;;;;25.72;14.80;;;;;;;4.42;71.36;95681.83;1816399;79;21135;-73
2020/12/28 07:05:24;;;;;;;28.57;13.90;;;;;;;4.16;70.17;95670.78;1816412;78;21142;-72
2020/12/28 07:07:51;;;;;;;17.70;7.90;;;;;;;4.01;71.32;95681.20;1816365;78;21087;-72
2020/12/28 07:10:22;;;;;;;9.13;5.03;;;;;;;3.77;71.72;95684.59;1816456;79;21025;-72
2020/12/28 07:12:48;;;;;;;10.25;4.28;;;;;;;3.61;71.11;95679.47;1816378;79;21087;-73
2020/12/28 07:15:16;;;;;;;7.53;5.03;;;;;;;3.68;72.35;95671.86;1816409;79;20992;-73
2020/12/28 07:17:42;;;;;;;4.65;2.10;;;;;;;3.68;72.35;95671.86;1816615;79;21330;-73
2020/12/28 07:20:13;;;;;;;3.60;2.00;;;;;;;3.68;71.99;95662.48;1816425;79;20936;-72
2020/12/28 07:22:41;;;;;;;3.25;1.90;;;;;;;3.70;71.67;95654.16;1816466;79;21114;-73
2020/12/28 07:25:08;;;;;;;3.47;2.10;;;;;;;3.74;71.40;95645.77;1815641;79;21035;-73
2020/12/28 07:27:35;;;;;;;26.65;10.43;;;;;;;3.80;72.18;95625.84;1816485;78;21137;-73
2020/12/28 07:30:11;;;;;;;10.75;5.08;;;;;;;3.82;72.46;95633.04;1816395;79;21119;-73
2020/12/28 07:32:37;;;;;;;13.18;6.50;;;;;;;3.82;72.91;95615.62;1816427;79;21118;-73
2020/12/28 07:35:03;;;;;;;22.02;11.65;;;;;;;3.76;72.31;95614.14;1816375;79;20980;-75
2020/12/28 07:37:29;;;;;;;25.52;11.48;;;;;;;3.72;73.06;95613.13;1782347;79;20928;-73
2020/12/28 07:39:55;;;;;;;35.30;16.75;;;;;;;3.68;72.68;95605.45;1816408;79;21122;-73
2020/12/28 07:42:22;;;;;;;48.68;25.65;;;;;;;3.71;72.96;95614.77;1816407;79;21084;-73
2020/12/28 07:45:02;;;;;;;35.43;20.17;;;;;;;3.67;73.17;95612.69;1816287;78;21182;-73
2020/12/28 07:47:57;;;;;;;41.53;21.95;;;;;;;3.70;73.41;95620.67;1816418;78;21524;-72
2020/12/28 07:50:22;;;;;;;39.92;21.52;;;;;;;3.53;73.51;95619.08;1782938;79;21162;-73
2020/12/28 07:52:58;;;;;;;31.77;15.83;;;;;;;3.46;73.68;95623.47;1816590;79;21015;-73
2020/12/28 07:55:30;;;;;;;26.12;13.22;;;;;;;3.49;73.95;95621.53;1816403;79;21138;-73
2020/12/28 07:58:04;;;;;;;32.05;16.90;;;;;;;3.57;73.80;95606.14;1816320;79;21551;-73
2020/12/28 08:00:34;;;;;;;30.65;15.03;;;;;;;3.68;74.18;95612.94;1814802;79;21460;-72
2020/12/28 08:03:15;;;;;;;43.15;18.37;;;;;;;3.80;73.68;95599.61;1816348;79;21135;-73
2020/12/28 08:05:41;;;;;;;30.90;17.02;;;;;;;3.87;73.13;95592.78;1809900;79;21079;-73
2020/12/28 08:08:09;;;;;;;33.63;17.75;;;;;;;3.94;72.92;95595.08;1816437;78;21606;-73
2020/12/28 08:10:35;;;;;;;44.53;22.75;;;;;;;4.02;71.79;95601.64;1808533;79;21091;-73
2020/12/28 08:13:00;;;;;;;36.73;20.52;;;;;;;4.11;72.60;95591.81;1816483;79;21220;-73
2020/12/28 08:15:32;;;;;;;42.50;23.38;;;;;;;4.14;70.84;95585.31;1816494;79;20901;-73
2020/12/28 08:18:11;;;;;;;32.42;17.05;;;;;;;4.22;72.23;95581.94;1816419;79;21073;-73
2020/12/28 08:20:38;;;;;;;45.92;20.95;;;;;;;4.24;70.61;95562.31;1816031;79;39141;-73
2020/12/28 08:23:04;;;;;;;32.93;17.05;;;;;;;4.33;71.54;95591.11;1816308;79;21159;-73
2020/12/28 08:25:31;;;;;;;27.13;17.80;;;;;;;4.27;71.95;95573.53;1816282;78;20959;-73
2020/12/28 08:27:57;;;;;;;24.32;14.05;;;;;;;4.16;71.81;95571.05;1816341;79;21134;-73
2020/12/28 08:30:27;;;;;;;187.57;89.87;;;;;;;4.08;71.76;95573.08;1816403;78;21088;-73
2020/12/28 08:32:54;;;;;;;35.10;19.67;;;;;;;4.05;72.06;95580.39;1816409;79;21319;-72
2020/12/28 08:35:20;;;;;;;13.22;7.62;;;;;;;4.08;72.24;95563.70;1816253;79;21056;-72
2020/12/28 08:37:48;;;;;;;19.10;11.78;;;;;;;4.16;72.63;95572.94;1816404;79;21626;-72
2020/12/28 08:40:19;;;;;;;17.55;10.80;;;;;;;4.19;72.48;95562.44;1815713;79;22139;-73
2020/12/28 08:42:55;;;;;;;20.40;10.90;;;;;;;4.10;72.07;95566.91;1816408;78;21516;-73
2020/12/28 08:45:23;;;;;;;29.77;19.87;;;;;;;4.20;72.26;95571.27;1784757;79;21361;-73
2020/12/28 08:47:56;;;;;;;44.83;28.47;;;;;;;4.31;72.17;95576.67;1816333;78;21091;-73
2020/12/28 08:50:22;;;;;;;16.52;11.40;;;;;;;4.32;72.27;95569.42;1816375;78;21146;-72
2020/12/28 08:52:54;;;;;;;18.50;10.08;;;;;;;4.30;71.44;95568.93;1816344;79;21190;-72
2020/12/28 08:55:20;;;;;;;17.15;8.45;;;;;;;4.42;71.81;95561.95;1816343;79;21023;-73
2020/12/28 08:57:55;;;;;;;17.27;9.50;;;;;;;4.55;71.84;95550.98;1816423;79;21376;-73
2020/12/28 09:00:22;;;;;;;23.90;16.50;;;;;;;4.63;72.01;95548.14;1816225;79;21051;-71
2020/12/28 09:02:57;;;;;;;26.85;18.02;;;;;;;4.63;71.79;95555.63;1816288;79;21122;-72
2020/12/28 09:05:23;;;;;;;17.65;8.13;;;;;;;4.55;71.27;95542.94;1811172;79;21102;-73
2020/12/28 09:07:49;;;;;;;29.02;15.75;;;;;;;4.56;71.88;95555.24;1816338;79;21153;-73
2020/12/28 09:10:16;;;;;;;15.70;9.25;;;;;;;4.49;71.07;95543.58;1816360;79;21131;-73
2020/12/28 09:12:42;;;;;;;47.50;28.30;;;;;;;4.55;70.80;95539.45;1816364;78;21197;-72
2020/12/28 09:15:09;;;;;;;29.52;12.65;;;;;;;4.67;71.34;95528.44;1816272;79;21618;-73
2020/12/28 09:17:34;;;;;;;26.95;10.90;;;;;;;4.84;69.09;95516.27;1816364;79;21162;-73
2020/12/28 09:20:00;;;;;;;36.93;14.47;;;;;;;5.26;69.34;95498.89;1816262;79;22445;-73
2020/12/28 09:22:26;;;;;;;40.83;16.37;;;;;;;5.60;70.39;95499.64;1816476;78;21436;-73
2020/12/28 09:24:51;;;;;;;87.75;43.58;;;;;;;5.85;66.24;95498.97;1816340;78;21988;-73
2020/12/28 09:27:17;;;;;;;32.90;16.50;;;;;;;6.15;67.16;95506.78;1816440;78;20952;-73
2020/12/28 09:29:43;;;;;;;22.27;12.60;;;;;;;6.26;67.60;95511.87;1816597;78;21192;-73
2020/12/28 09:32:09;;;;;;;15.65;8.15;;;;;;;6.15;67.13;95513.52;1816466;78;20881;-73
2020/12/28 09:34:35;;;;;;;15.08;7.28;;;;;;;5.96;66.03;95518.32;1816588;79;21366;-73
2020/12/28 09:37:04;;;;;;;23.75;10.88;;;;;;;5.85;67.11;95523.70;1816397;79;20923;-72
2020/12/28 09:39:30;;;;;;;16.80;8.15;;;;;;;5.72;67.42;95503.09;1814644;79;21135;-73
2020/12/28 09:41:56;;;;;;;20.23;10.95;;;;;;;5.64;67.73;95516.74;1816571;79;21026;-73
2020/12/28 09:44:22;;;;;;;24.47;14.53;;;;;;;5.61;66.93;95510.63;1776161;78;306890;-73
2020/12/28 09:46:50;;;;;;;24.02;16.77;;;;;;;5.60;67.37;95516.55;1763026;81;21440;-74
2020/12/28 09:49:15;;;;;;;23.70;16.17;;;;;;;5.65;68.10;95527.73;1737719;81;21109;-73
2020/12/28 09:52:01;;;;;;;31.90;19.80;;;;;;;5.65;65.90;95521.02;1781046;80;65433;-73
2020/12/28 09:54:27;;;;;;;45.92;24.95;;;;;;;5.46;65.69;95516.38;1752057;82;21264;-73
2020/12/28 09:56:53;;;;;;;24.60;13.70;;;;;;;5.52;67.55;95529.38;1752154;82;21148;-72
2020/12/28 09:59:20;;;;;;;33.00;17.00;;;;;;;5.46;67.32;95530.60;1751981;82;21155;-72
2020/12/28 10:01:47;;;;;;;49.03;29.00;;;;;;;5.48;67.67;95527.63;1690562;82;178561;-72
2020/12/28 10:04:13;;;;;;;101.25;48.78;;;;;;;5.40;67.78;95507.68;1719177;83;21244;-72
2020/12/28 10:06:40;;;;;;;42.20;20.35;;;;;;;5.46;67.80;95526.58;1719082;83;21470;-72
2020/12/28 10:09:10;;;;;;;42.80;22.07;;;;;;;5.57;67.71;95546.73;1698665;83;22321;-73
2020/12/28 10:11:37;;;;;;;27.32;16.20;;;;;;;5.84;67.98;95524.81;1679965;85;21571;-73
2020/12/28 10:14:04;;;;;;;17.12;8.23;;;;;;;6.09;67.33;95537.60;1719096;83;21155;-72
2020/12/28 10:16:31;;;;;;;45.92;28.02;;;;;;;6.32;65.63;95534.25;1680047;85;21513;-73
2020/12/28 10:18:58;;;;;;;29.30;18.48;;;;;;;6.58;64.11;95530.83;1719081;83;21141;-73
2020/12/28 10:21:26;;;;;;;11.68;6.20;;;;;;;6.68;65.24;95535.38;1680127;85;21181;-72
2020/12/28 10:23:52;;;;;;;10.65;5.80;;;;;;;6.76;63.07;95525.73;1718910;83;21393;-73
2020/12/28 10:26:21;;;;;;;5.87;3.77;;;;;;;7.02;60.39;95556.16;1679984;84;21490;-73
2020/12/28 10:28:48;;;;;;;46.33;25.82;;;;;;;7.18;59.66;95555.14;1719126;83;21122;-73
2020/12/28 10:31:15;;;;;;;9.33;5.50;;;;;;;7.24;60.98;95545.77;1718926;83;21176;-72
2020/12/28 10:33:42;;;;;;;15.68;8.78;;;;;;;7.26;61.58;95554.88;1680110;85;21218;-72
2020/12/28 10:36:19;;;;;;;39.75;21.17;;;;;;;7.27;60.57;95559.97;1719021;83;21073;-73
2020/12/28 10:38:47;;;;;;;10.85;5.33;;;;;;;7.23;61.46;95552.83;1679544;83;21156;-73
2020/12/28 10:41:13;;;;;;;14.40;6.35;;;;;;;7.19;60.19;95557.27;1719192;83;21156;-72
2020/12/28 10:43:39;;;;;;;18.37;9.50;;;;;;;7.16;58.75;95560.58;1718991;83;21196;-72
2020/12/28 10:46:08;;;;;;;23.07;11.90;;;;;;;7.04;60.63;95557.19;1666280;85;22235;-72
2020/12/28 10:48:35;;;;;;;12.10;6.37;;;;;;;6.97;59.98;95575.15;1719119;83;21568;-72
2020/12/28 10:51:03;;;;;;;8.70;5.20;;;;;;;6.90;58.15;95575.38;1718789;83;21081;-72
2020/12/28 10:53:29;;;;;;;4.70;3.33;;;;;;;6.84;58.46;95584.73;1719027;83;21137;-72
2020/12/28 10:55:56;;;;;;;6.20;3.30;;;;;;;6.91;56.64;95574.27;1719029;83;21156;-73
2020/12/28 10:58:22;;;;;;;7.12;4.42;;;;;;;6.79;56.62;95568.95;1719082;83;21356;-73
2020/12/28 11:00:51;;;;;;;6.50;3.85;;;;;;;6.77;56.63;95571.73;1718951;83;21073;-72
2020/12/28 11:03:18;;;;;;;8.08;4.33;;;;;;;6.67;57.55;95572.83;1679568;85;21200;-72
2020/12/28 11:05:44;;;;;;;7.58;4.45;;;;;;;6.59;56.67;95568.21;1718400;83;21165;-73
2020/12/28 11:08:10;;;;;;;7.90;4.60;;;;;;;6.62;56.00;95576.20;1679588;85;21232;-72
2020/12/28 11:10:37;;;;;;;9.03;4.45;;;;;;;6.65;55.35;95556.17;1718489;83;21256;-72
2020/12/28 11:13:03;;;;;;;8.45;4.17;;;;;;;6.58;56.17;95561.77;1679456;85;21645;-73
2020/12/28 11:15:29;;;;;;;8.60;4.75;;;;;;;6.50;56.86;95542.63;1718416;83;21069;-73
2020/12/28 11:17:56;;;;;;;29.77;16.37;;;;;;;6.47;56.72;95545.93;1718502;83;21271;-73
2020/12/28 11:20:22;;;;;;;23.65;10.03;;;;;;;6.45;56.49;95548.15;1718382;83;21082;-73
2020/12/28 11:22:49;;;;;;;8.50;3.52;;;;;;;6.41;56.37;95552.58;1718463;83;21193;-72
2020/12/28 11:25:18;;;;;;;151.90;60.03;;;;;;;6.40;56.71;95551.52;1679510;85;21695;-72
2020/12/28 11:27:45;;;;;;;34.18;16.80;;;;;;;6.32;57.82;95553.63;1718416;83;21124;-72